sensor_id;sensor_type;location;lat;lon;timestamp;temperature;humidity
69335;SHT31;56477;52.742;15.242;2023-04-07T00:01:57;2.43;73.98
69335;SHT31;56477;52.742;15.242;2023-04-07T00:04:23;2.43;74.02
69335;SHT31;56477;52.742;15.242;2023-04-07T00:06:49;2.42;74.35
69335;SHT31;56477;52.742;15.242;2023-04-07T00:09:15;2.42;74.21
69335;SHT31;56477;52.742;15.242;2023-04-07T00:11:41;2.32;74.75
69335;SHT31;56477;52.742;15.242;2023-04-07T00:14:06;2.26;75.21
69335;SHT31;56477;52.742;15.242;2023-04-07T00:16:33;2.22;74.99
69335;SHT31;56477;52.742;15.242;2023-04-07T00:18:58;2.23;75.57
69335;SHT31;56477;52.742;15.242;2023-04-07T00:21:24;2.23;76.31
69335;SHT31;56477;52.742;15.242;2023-04-07T00:23:51;2.16;76.85
69335;SHT31;56477;52.742;15.242;2023-04-07T00:26:17;2.16;76.88
69335;SHT31;56477;52.742;15.242;2023-04-07T00:28:43;2.16;76.94
69335;SHT31;56477;52.742;15.242;2023-04-07T00:31:09;2.12;76.50
69335;SHT31;56477;52.742;15.242;2023-04-07T00:33:35;2.11;77.28
69335;SHT31;56477;52.742;15.242;2023-04-07T00:36:01;2.09;77.07
69335;SHT31;56477;52.742;15.242;2023-04-07T00:38:27;2.06;77.58
69335;SHT31;56477;52.742;15.242;2023-04-07T00:40:59;2.08;77.20
69335;SHT31;56477;52.742;15.242;2023-04-07T00:43:26;2.06;77.71
69335;SHT31;56477;52.742;15.242;2023-04-07T00:45:53;2.12;77.92
69335;SHT31;56477;52.742;15.242;2023-04-07T00:48:19;2.11;78.03
69335;SHT31;56477;52.742;15.242;2023-04-07T00:50:46;2.04;77.34
69335;SHT31;56477;52.742;15.242;2023-04-07T00:53:12;2.01;77.35
69335;SHT31;56477;52.742;15.242;2023-04-07T00:55:38;1.95;77.94
69335;SHT31;56477;52.742;15.242;2023-04-07T00:58:04;1.88;78.06
69335;SHT31;56477;52.742;15.242;2023-04-07T01:00:32;1.86;78.14
69335;SHT31;56477;52.742;15.242;2023-04-07T01:03:06;1.89;78.35
69335;SHT31;56477;52.742;15.242;2023-04-07T01:08:32;1.94;78.08
69335;SHT31;56477;52.742;15.242;2023-04-07T01:11:07;1.97;78.50
69335;SHT31;56477;52.742;15.242;2023-04-07T01:13:42;1.97;77.97
69335;SHT31;56477;52.742;15.242;2023-04-07T01:16:16;2.01;78.05
69335;SHT31;56477;52.742;15.242;2023-04-07T01:18:46;1.98;77.95
69335;SHT31;56477;52.742;15.242;2023-04-07T01:21:14;2.01;78.79
69335;SHT31;56477;52.742;15.242;2023-04-07T01:24:11;2.01;78.38
69335;SHT31;56477;52.742;15.242;2023-04-07T01:26:42;2.06;78.03
69335;SHT31;56477;52.742;15.242;2023-04-07T01:31:50;2.09;77.70
69335;SHT31;56477;52.742;15.242;2023-04-07T01:34:16;2.13;77.67
69335;SHT31;56477;52.742;15.242;2023-04-07T01:36:44;2.18;77.62
69335;SHT31;56477;52.742;15.242;2023-04-07T01:39:11;2.13;77.29
69335;SHT31;56477;52.742;15.242;2023-04-07T01:41:38;2.06;77.41
69335;SHT31;56477;52.742;15.242;2023-04-07T01:44:06;2.04;77.20
69335;SHT31;56477;52.742;15.242;2023-04-07T01:46:33;2.08;77.35
69335;SHT31;56477;52.742;15.242;2023-04-07T01:48:59;2.06;76.66
69335;SHT31;56477;52.742;15.242;2023-04-07T01:51:27;2.12;76.92
69335;SHT31;56477;52.742;15.242;2023-04-07T01:53:56;2.19;76.67
69335;SHT31;56477;52.742;15.242;2023-04-07T01:56:22;2.23;76.62
69335;SHT31;56477;52.742;15.242;2023-04-07T01:58:48;2.28;76.56
69335;SHT31;56477;52.742;15.242;2023-04-07T02:01:14;2.23;76.70
69335;SHT31;56477;52.742;15.242;2023-04-07T02:06:42;2.28;76.64
69335;SHT31;56477;52.742;15.242;2023-04-07T02:09:10;2.30;76.49
69335;SHT31;56477;52.742;15.242;2023-04-07T02:11:39;2.42;76.81
69335;SHT31;56477;52.742;15.242;2023-04-07T02:14:07;2.46;76.57
69335;SHT31;56477;52.742;15.242;2023-04-07T02:16:34;2.46;76.24
69335;SHT31;56477;52.742;15.242;2023-04-07T02:19:02;2.52;76.22
69335;SHT31;56477;52.742;15.242;2023-04-07T02:21:29;2.57;76.38
69335;SHT31;56477;52.742;15.242;2023-04-07T02:24:00;2.65;76.43
69335;SHT31;56477;52.742;15.242;2023-04-07T02:26:26;2.64;76.07
69335;SHT31;56477;52.742;15.242;2023-04-07T02:28:51;2.68;75.49
69335;SHT31;56477;52.742;15.242;2023-04-07T02:31:17;2.67;75.66
69335;SHT31;56477;52.742;15.242;2023-04-07T02:33:43;2.63;75.14
69335;SHT31;56477;52.742;15.242;2023-04-07T02:36:09;2.63;75.31
69335;SHT31;56477;52.742;15.242;2023-04-07T02:38:35;2.60;75.65
69335;SHT31;56477;52.742;15.242;2023-04-07T02:41:02;2.58;75.05
69335;SHT31;56477;52.742;15.242;2023-04-07T02:43:28;2.61;75.91
69335;SHT31;56477;52.742;15.242;2023-04-07T02:45:54;2.65;75.72
69335;SHT31;56477;52.742;15.242;2023-04-07T02:48:20;2.65;75.61
69335;SHT31;56477;52.742;15.242;2023-04-07T02:50:46;2.63;75.99
69335;SHT31;56477;52.742;15.242;2023-04-07T02:53:12;2.65;76.67
69335;SHT31;56477;52.742;15.242;2023-04-07T02:55:39;2.61;76.37
69335;SHT31;56477;52.742;15.242;2023-04-07T02:58:04;2.61;76.99
69335;SHT31;56477;52.742;15.242;2023-04-07T03:00:31;2.60;77.33
69335;SHT31;56477;52.742;15.242;2023-04-07T03:02:57;2.57;77.13
69335;SHT31;56477;52.742;15.242;2023-04-07T03:05:23;2.61;77.26
69335;SHT31;56477;52.742;15.242;2023-04-07T03:07:49;2.60;77.25
69335;SHT31;56477;52.742;15.242;2023-04-07T03:10:15;2.63;77.14
69335;SHT31;56477;52.742;15.242;2023-04-07T03:12:42;2.63;77.64
69335;SHT31;56477;52.742;15.242;2023-04-07T03:15:08;2.64;77.59
69335;SHT31;56477;52.742;15.242;2023-04-07T03:17:34;2.63;77.60
69335;SHT31;56477;52.742;15.242;2023-04-07T03:20:00;2.63;77.85
69335;SHT31;56477;52.742;15.242;2023-04-07T03:22:26;2.65;77.81
69335;SHT31;56477;52.742;15.242;2023-04-07T03:24:52;2.67;77.90
69335;SHT31;56477;52.742;15.242;2023-04-07T03:27:18;2.70;77.67
69335;SHT31;56477;52.742;15.242;2023-04-07T03:29:45;2.71;77.53
69335;SHT31;56477;52.742;15.242;2023-04-07T03:32:11;2.71;78.03
69335;SHT31;56477;52.742;15.242;2023-04-07T03:34:37;2.71;78.19
69335;SHT31;56477;52.742;15.242;2023-04-07T03:37:03;2.74;78.11
69335;SHT31;56477;52.742;15.242;2023-04-07T03:39:30;2.70;77.89
69335;SHT31;56477;52.742;15.242;2023-04-07T03:41:56;2.70;78.19
69335;SHT31;56477;52.742;15.242;2023-04-07T03:44:22;2.67;78.68
69335;SHT31;56477;52.742;15.242;2023-04-07T03:46:48;2.67;78.68
69335;SHT31;56477;52.742;15.242;2023-04-07T03:49:15;2.64;78.13
69335;SHT31;56477;52.742;15.242;2023-04-07T03:51:41;2.65;78.13
69335;SHT31;56477;52.742;15.242;2023-04-07T03:54:07;2.68;78.46
69335;SHT31;56477;52.742;15.242;2023-04-07T03:56:33;2.73;78.45
69335;SHT31;56477;52.742;15.242;2023-04-07T03:58:59;2.79;78.99
69335;SHT31;56477;52.742;15.242;2023-04-07T04:01:25;2.77;78.66
69335;SHT31;56477;52.742;15.242;2023-04-07T04:03:51;2.76;78.65
69335;SHT31;56477;52.742;15.242;2023-04-07T04:06:17;2.74;79.42
69335;SHT31;56477;52.742;15.242;2023-04-07T04:08:43;2.74;79.99
69335;SHT31;56477;52.742;15.242;2023-04-07T04:11:09;2.71;79.45
69335;SHT31;56477;52.742;15.242;2023-04-07T04:13:35;2.64;80.22
69335;SHT31;56477;52.742;15.242;2023-04-07T04:16:01;2.67;80.72
69335;SHT31;56477;52.742;15.242;2023-04-07T04:18:27;2.65;81.22
69335;SHT31;56477;52.742;15.242;2023-04-07T04:20:53;2.67;81.60
69335;SHT31;56477;52.742;15.242;2023-04-07T04:23:19;2.65;81.47
69335;SHT31;56477;52.742;15.242;2023-04-07T04:25:45;2.61;81.95
69335;SHT31;56477;52.742;15.242;2023-04-07T04:28:11;2.57;81.25
69335;SHT31;56477;52.742;15.242;2023-04-07T04:30:36;2.47;82.20
69335;SHT31;56477;52.742;15.242;2023-04-07T04:33:03;2.47;82.48
69335;SHT31;56477;52.742;15.242;2023-04-07T04:35:28;2.42;82.36
69335;SHT31;56477;52.742;15.242;2023-04-07T04:37:54;2.40;83.66
69335;SHT31;56477;52.742;15.242;2023-04-07T04:40:20;2.39;83.44
69335;SHT31;56477;52.742;15.242;2023-04-07T04:42:46;2.39;83.41
69335;SHT31;56477;52.742;15.242;2023-04-07T04:45:12;2.37;84.13
69335;SHT31;56477;52.742;15.242;2023-04-07T04:47:38;2.42;84.79
69335;SHT31;56477;52.742;15.242;2023-04-07T04:50:06;2.44;83.62
69335;SHT31;56477;52.742;15.242;2023-04-07T04:52:33;2.46;83.29
69335;SHT31;56477;52.742;15.242;2023-04-07T04:54:59;2.46;83.45
69335;SHT31;56477;52.742;15.242;2023-04-07T04:57:25;2.49;83.23
69335;SHT31;56477;52.742;15.242;2023-04-07T04:59:50;2.53;82.60
69335;SHT31;56477;52.742;15.242;2023-04-07T05:02:17;2.57;83.56
69335;SHT31;56477;52.742;15.242;2023-04-07T05:04:42;2.64;83.88
69335;SHT31;56477;52.742;15.242;2023-04-07T05:07:09;2.68;83.43
69335;SHT31;56477;52.742;15.242;2023-04-07T05:09:35;2.71;82.68
69335;SHT31;56477;52.742;15.242;2023-04-07T05:12:01;2.76;82.43
69335;SHT31;56477;52.742;15.242;2023-04-07T05:14:27;2.80;83.09
69335;SHT31;56477;52.742;15.242;2023-04-07T05:16:53;2.84;83.46
69335;SHT31;56477;52.742;15.242;2023-04-07T05:19:19;2.85;83.53
69335;SHT31;56477;52.742;15.242;2023-04-07T05:21:45;2.83;82.78
69335;SHT31;56477;52.742;15.242;2023-04-07T05:24:11;2.87;82.49
69335;SHT31;56477;52.742;15.242;2023-04-07T05:26:37;2.91;83.36
69335;SHT31;56477;52.742;15.242;2023-04-07T05:29:03;2.91;84.14
69335;SHT31;56477;52.742;15.242;2023-04-07T05:31:29;2.94;83.51
69335;SHT31;56477;52.742;15.242;2023-04-07T05:33:55;2.98;83.10
69335;SHT31;56477;52.742;15.242;2023-04-07T05:36:21;2.97;82.92
69335;SHT31;56477;52.742;15.242;2023-04-07T05:38:47;3.04;83.52
69335;SHT31;56477;52.742;15.242;2023-04-07T05:41:13;3.09;82.17
69335;SHT31;56477;52.742;15.242;2023-04-07T05:43:39;3.16;82.95
69335;SHT31;56477;52.742;15.242;2023-04-07T05:46:05;3.26;83.01
69335;SHT31;56477;52.742;15.242;2023-04-07T05:48:31;3.39;82.76
69335;SHT31;56477;52.742;15.242;2023-04-07T05:50:57;3.40;81.87
69335;SHT31;56477;52.742;15.242;2023-04-07T05:53:23;3.43;83.91
69335;SHT31;56477;52.742;15.242;2023-04-07T05:55:49;3.50;82.44
69335;SHT31;56477;52.742;15.242;2023-04-07T05:58:15;3.59;82.82
69335;SHT31;56477;52.742;15.242;2023-04-07T06:00:41;3.62;82.42
69335;SHT31;56477;52.742;15.242;2023-04-07T06:03:07;3.64;83.14
69335;SHT31;56477;52.742;15.242;2023-04-07T06:05:33;3.73;82.61
69335;SHT31;56477;52.742;15.242;2023-04-07T06:07:59;3.79;82.27
69335;SHT31;56477;52.742;15.242;2023-04-07T06:10:25;3.77;82.44
69335;SHT31;56477;52.742;15.242;2023-04-07T06:12:51;3.84;82.65
69335;SHT31;56477;52.742;15.242;2023-04-07T06:15:17;3.87;82.39
69335;SHT31;56477;52.742;15.242;2023-04-07T06:17:43;3.94;82.45
69335;SHT31;56477;52.742;15.242;2023-04-07T06:20:11;4.01;82.16
69335;SHT31;56477;52.742;15.242;2023-04-07T06:22:38;4.14;82.47
69335;SHT31;56477;52.742;15.242;2023-04-07T06:25:04;4.18;82.02
69335;SHT31;56477;52.742;15.242;2023-04-07T06:27:31;4.17;82.78
69335;SHT31;56477;52.742;15.242;2023-04-07T06:29:58;4.18;82.78
69335;SHT31;56477;52.742;15.242;2023-04-07T06:32:23;4.22;82.23
69335;SHT31;56477;52.742;15.242;2023-04-07T06:34:50;4.27;82.78
69335;SHT31;56477;52.742;15.242;2023-04-07T06:37:16;4.22;83.19
69335;SHT31;56477;52.742;15.242;2023-04-07T06:39:43;4.25;83.87
69335;SHT31;56477;52.742;15.242;2023-04-07T06:42:09;4.27;84.70
69335;SHT31;56477;52.742;15.242;2023-04-07T06:44:36;4.28;85.26
69335;SHT31;56477;52.742;15.242;2023-04-07T06:47:01;4.34;84.67
69335;SHT31;56477;52.742;15.242;2023-04-07T06:49:28;4.29;84.64
69335;SHT31;56477;52.742;15.242;2023-04-07T06:51:53;4.38;85.42
69335;SHT31;56477;52.742;15.242;2023-04-07T06:54:19;4.38;85.33
69335;SHT31;56477;52.742;15.242;2023-04-07T06:56:46;4.45;85.10
69335;SHT31;56477;52.742;15.242;2023-04-07T06:59:12;4.46;84.67
69335;SHT31;56477;52.742;15.242;2023-04-07T07:01:37;4.48;84.63
69335;SHT31;56477;52.742;15.242;2023-04-07T07:04:04;4.45;85.59
69335;SHT31;56477;52.742;15.242;2023-04-07T07:06:32;4.34;84.58
69335;SHT31;56477;52.742;15.242;2023-04-07T07:08:59;4.35;85.25
69335;SHT31;56477;52.742;15.242;2023-04-07T07:11:25;4.31;86.06
69335;SHT31;56477;52.742;15.242;2023-04-07T07:13:52;4.27;86.08
69335;SHT31;56477;52.742;15.242;2023-04-07T07:16:17;4.25;86.18
69335;SHT31;56477;52.742;15.242;2023-04-07T07:18:44;4.15;86.30
69335;SHT31;56477;52.742;15.242;2023-04-07T07:21:09;4.10;86.39
69335;SHT31;56477;52.742;15.242;2023-04-07T07:23:35;4.07;86.94
69335;SHT31;56477;52.742;15.242;2023-04-07T07:26:02;4.05;86.50
69335;SHT31;56477;52.742;15.242;2023-04-07T07:28:28;3.95;86.58
69335;SHT31;56477;52.742;15.242;2023-04-07T07:30:54;3.98;86.71
69335;SHT31;56477;52.742;15.242;2023-04-07T07:33:21;4.04;86.90
69335;SHT31;56477;52.742;15.242;2023-04-07T07:35:47;4.02;86.67
69335;SHT31;56477;52.742;15.242;2023-04-07T07:38:14;4.05;86.91
69335;SHT31;56477;52.742;15.242;2023-04-07T07:40:40;4.07;87.64
69335;SHT31;56477;52.742;15.242;2023-04-07T07:43:06;4.08;87.90
69335;SHT31;56477;52.742;15.242;2023-04-07T07:45:32;4.11;87.59
69335;SHT31;56477;52.742;15.242;2023-04-07T07:47:58;4.08;88.09
69335;SHT31;56477;52.742;15.242;2023-04-07T07:50:24;4.04;88.71
69335;SHT31;56477;52.742;15.242;2023-04-07T07:52:50;4.10;88.79
69335;SHT31;56477;52.742;15.242;2023-04-07T07:55:16;4.14;88.86
69335;SHT31;56477;52.742;15.242;2023-04-07T07:57:42;4.15;88.65
69335;SHT31;56477;52.742;15.242;2023-04-07T08:00:08;4.18;88.23
69335;SHT31;56477;52.742;15.242;2023-04-07T08:02:35;4.22;88.00
69335;SHT31;56477;52.742;15.242;2023-04-07T08:05:01;4.31;88.16
69335;SHT31;56477;52.742;15.242;2023-04-07T08:07:27;4.42;87.85
69335;SHT31;56477;52.742;15.242;2023-04-07T08:09:53;4.48;88.51
69335;SHT31;56477;52.742;15.242;2023-04-07T08:12:20;4.55;88.37
69335;SHT31;56477;52.742;15.242;2023-04-07T08:14:46;4.58;88.02
69335;SHT31;56477;52.742;15.242;2023-04-07T08:17:12;4.62;87.85
69335;SHT31;56477;52.742;15.242;2023-04-07T08:19:38;4.72;87.69
69335;SHT31;56477;52.742;15.242;2023-04-07T08:22:04;4.72;88.37
69335;SHT31;56477;52.742;15.242;2023-04-07T08:24:30;4.79;88.02
69335;SHT31;56477;52.742;15.242;2023-04-07T08:26:56;4.79;88.15
69335;SHT31;56477;52.742;15.242;2023-04-07T08:29:22;4.80;87.61
69335;SHT31;56477;52.742;15.242;2023-04-07T08:31:48;4.84;87.16
69335;SHT31;56477;52.742;15.242;2023-04-07T08:34:14;4.81;87.42
69335;SHT31;56477;52.742;15.242;2023-04-07T08:36:41;4.80;87.51
69335;SHT31;56477;52.742;15.242;2023-04-07T08:39:07;4.87;87.79
69335;SHT31;56477;52.742;15.242;2023-04-07T08:41:36;4.94;86.73
69335;SHT31;56477;52.742;15.242;2023-04-07T08:44:03;4.91;86.22
69335;SHT31;56477;52.742;15.242;2023-04-07T08:46:29;4.99;86.63
69335;SHT31;56477;52.742;15.242;2023-04-07T08:48:56;5.00;86.76
69335;SHT31;56477;52.742;15.242;2023-04-07T08:51:32;5.06;86.97
69335;SHT31;56477;52.742;15.242;2023-04-07T08:54:04;5.11;87.32
69335;SHT31;56477;52.742;15.242;2023-04-07T08:56:32;5.08;85.63
69335;SHT31;56477;52.742;15.242;2023-04-07T08:59:00;5.16;86.76
69335;SHT31;56477;52.742;15.242;2023-04-07T09:01:28;5.31;87.00
69335;SHT31;56477;52.742;15.242;2023-04-07T09:03:55;5.38;85.82
69335;SHT31;56477;52.742;15.242;2023-04-07T09:06:23;5.38;86.03
69335;SHT31;56477;52.742;15.242;2023-04-07T09:08:48;5.41;85.63
69335;SHT31;56477;52.742;15.242;2023-04-07T09:11:15;5.35;86.84
69335;SHT31;56477;52.742;15.242;2023-04-07T09:13:41;5.35;85.73
69335;SHT31;56477;52.742;15.242;2023-04-07T09:16:07;5.26;85.82
69335;SHT31;56477;52.742;15.242;2023-04-07T09:18:33;5.24;86.70
69335;SHT31;56477;52.742;15.242;2023-04-07T09:21:03;5.21;86.22
69335;SHT31;56477;52.742;15.242;2023-04-07T09:23:34;5.23;86.62
69335;SHT31;56477;52.742;15.242;2023-04-07T09:26:23;5.27;86.51
69335;SHT31;56477;52.742;15.242;2023-04-07T09:28:54;5.26;86.59
69335;SHT31;56477;52.742;15.242;2023-04-07T09:31:22;5.26;87.18
69335;SHT31;56477;52.742;15.242;2023-04-07T09:33:50;5.18;86.43
69335;SHT31;56477;52.742;15.242;2023-04-07T09:36:17;5.34;86.76
69335;SHT31;56477;52.742;15.242;2023-04-07T09:38:44;5.34;86.84
69335;SHT31;56477;52.742;15.242;2023-04-07T09:41:15;5.30;85.95
69335;SHT31;56477;52.742;15.242;2023-04-07T09:43:43;5.24;86.42
69335;SHT31;56477;52.742;15.242;2023-04-07T09:46:14;5.27;87.13
69335;SHT31;56477;52.742;15.242;2023-04-07T09:48:41;5.35;87.26
69335;SHT31;56477;52.742;15.242;2023-04-07T09:51:10;5.35;87.00
69335;SHT31;56477;52.742;15.242;2023-04-07T09:53:47;5.47;86.85
69335;SHT31;56477;52.742;15.242;2023-04-07T09:56:19;5.51;86.12
69335;SHT31;56477;52.742;15.242;2023-04-07T09:58:48;5.45;86.02
69335;SHT31;56477;52.742;15.242;2023-04-07T10:01:17;5.58;86.34
69335;SHT31;56477;52.742;15.242;2023-04-07T10:03:44;5.65;86.04
69335;SHT31;56477;52.742;15.242;2023-04-07T10:06:12;5.78;85.87
69335;SHT31;56477;52.742;15.242;2023-04-07T10:08:40;5.90;85.92
69335;SHT31;56477;52.742;15.242;2023-04-07T10:11:08;5.90;85.08
69335;SHT31;56477;52.742;15.242;2023-04-07T10:13:36;5.82;84.95
69335;SHT31;56477;52.742;15.242;2023-04-07T10:16:05;5.86;85.68
69335;SHT31;56477;52.742;15.242;2023-04-07T10:18:34;5.89;85.30
69335;SHT31;56477;52.742;15.242;2023-04-07T10:21:04;5.92;85.59
69335;SHT31;56477;52.742;15.242;2023-04-07T10:23:58;6.00;85.59
69335;SHT31;56477;52.742;15.242;2023-04-07T10:26:31;6.05;85.27
69335;SHT31;56477;52.742;15.242;2023-04-07T10:29:03;6.03;85.44
69335;SHT31;56477;52.742;15.242;2023-04-07T10:31:32;6.16;84.95
69335;SHT31;56477;52.742;15.242;2023-04-07T10:33:58;6.21;84.48
69335;SHT31;56477;52.742;15.242;2023-04-07T10:36:24;6.21;84.64
69335;SHT31;56477;52.742;15.242;2023-04-07T10:41:36;6.20;84.58
69335;SHT31;56477;52.742;15.242;2023-04-07T10:44:06;6.21;84.67
69335;SHT31;56477;52.742;15.242;2023-04-07T10:49:11;6.21;84.87
69335;SHT31;56477;52.742;15.242;2023-04-07T10:51:41;6.20;85.15
69335;SHT31;56477;52.742;15.242;2023-04-07T10:59:33;6.40;84.80
69335;SHT31;56477;52.742;15.242;2023-04-07T11:04:44;6.37;84.40
69335;SHT31;56477;52.742;15.242;2023-04-07T11:07:11;6.41;84.92
69335;SHT31;56477;52.742;15.242;2023-04-07T11:09:37;6.42;84.08
69335;SHT31;56477;52.742;15.242;2023-04-07T11:12:03;6.34;85.28
69335;SHT31;56477;52.742;15.242;2023-04-07T11:14:32;6.27;84.42
69335;SHT31;56477;52.742;15.242;2023-04-07T11:16:59;6.26;85.36
69335;SHT31;56477;52.742;15.242;2023-04-07T11:19:29;6.24;85.14
69335;SHT31;56477;52.742;15.242;2023-04-07T11:22:13;6.21;85.72
69335;SHT31;56477;52.742;15.242;2023-04-07T11:24:39;6.17;85.66
69335;SHT31;56477;52.742;15.242;2023-04-07T11:27:14;6.16;85.84
69335;SHT31;56477;52.742;15.242;2023-04-07T11:29:40;5.97;86.16
69335;SHT31;56477;52.742;15.242;2023-04-07T11:32:07;6.03;86.13
69335;SHT31;56477;52.742;15.242;2023-04-07T11:34:34;6.10;86.23
69335;SHT31;56477;52.742;15.242;2023-04-07T11:37:20;6.11;86.40
69335;SHT31;56477;52.742;15.242;2023-04-07T11:39:57;6.14;86.45
69335;SHT31;56477;52.742;15.242;2023-04-07T11:42:33;6.20;86.32
69335;SHT31;56477;52.742;15.242;2023-04-07T11:44:59;6.23;85.81
69335;SHT31;56477;52.742;15.242;2023-04-07T11:47:35;6.21;85.59
69335;SHT31;56477;52.742;15.242;2023-04-07T11:50:01;6.33;86.12
69335;SHT31;56477;52.742;15.242;2023-04-07T11:52:28;6.20;85.76
69335;SHT31;56477;52.742;15.242;2023-04-07T11:54:54;6.35;86.27
69335;SHT31;56477;52.742;15.242;2023-04-07T11:57:24;6.38;86.39
69335;SHT31;56477;52.742;15.242;2023-04-07T12:00:07;6.47;86.43
69335;SHT31;56477;52.742;15.242;2023-04-07T12:02:34;6.45;86.35
69335;SHT31;56477;52.742;15.242;2023-04-07T12:05:00;6.47;86.31
69335;SHT31;56477;52.742;15.242;2023-04-07T12:07:27;6.47;86.45
69335;SHT31;56477;52.742;15.242;2023-04-07T12:09:53;6.51;86.81
69335;SHT31;56477;52.742;15.242;2023-04-07T12:12:29;6.59;86.73
69335;SHT31;56477;52.742;15.242;2023-04-07T12:14:57;6.65;86.65
69335;SHT31;56477;52.742;15.242;2023-04-07T12:17:25;6.57;86.20
69335;SHT31;56477;52.742;15.242;2023-04-07T12:19:52;6.52;86.08
69335;SHT31;56477;52.742;15.242;2023-04-07T12:22:19;6.47;87.01
69335;SHT31;56477;52.742;15.242;2023-04-07T12:24:45;6.51;86.47
69335;SHT31;56477;52.742;15.242;2023-04-07T12:27:11;6.51;86.73
69335;SHT31;56477;52.742;15.242;2023-04-07T12:29:37;6.52;86.77
69335;SHT31;56477;52.742;15.242;2023-04-07T12:32:04;6.52;87.03
69335;SHT31;56477;52.742;15.242;2023-04-07T12:34:30;6.44;86.08
69335;SHT31;56477;52.742;15.242;2023-04-07T12:36:56;6.52;86.98
69335;SHT31;56477;52.742;15.242;2023-04-07T12:39:22;6.57;86.86
69335;SHT31;56477;52.742;15.242;2023-04-07T12:41:48;6.63;86.91
69335;SHT31;56477;52.742;15.242;2023-04-07T12:44:17;6.57;87.17
69335;SHT31;56477;52.742;15.242;2023-04-07T12:46:43;6.59;87.72
69335;SHT31;56477;52.742;15.242;2023-04-07T12:49:10;6.67;87.98
69335;SHT31;56477;52.742;15.242;2023-04-07T12:51:36;6.75;87.18
69335;SHT31;56477;52.742;15.242;2023-04-07T12:54:04;6.55;86.90
69335;SHT31;56477;52.742;15.242;2023-04-07T12:56:30;6.58;86.83
69335;SHT31;56477;52.742;15.242;2023-04-07T12:58:56;6.68;87.62
69335;SHT31;56477;52.742;15.242;2023-04-07T13:01:23;6.88;87.47
69335;SHT31;56477;52.742;15.242;2023-04-07T13:03:48;7.00;86.82
69335;SHT31;56477;52.742;15.242;2023-04-07T13:06:15;6.96;86.70
69335;SHT31;56477;52.742;15.242;2023-04-07T13:08:42;7.02;86.25
69335;SHT31;56477;52.742;15.242;2023-04-07T13:11:08;6.95;86.67
69335;SHT31;56477;52.742;15.242;2023-04-07T13:13:34;7.09;86.57
69335;SHT31;56477;52.742;15.242;2023-04-07T13:16:00;6.96;85.40
69335;SHT31;56477;52.742;15.242;2023-04-07T13:18:26;6.97;86.37
69335;SHT31;56477;52.742;15.242;2023-04-07T13:20:52;7.03;86.25
69335;SHT31;56477;52.742;15.242;2023-04-07T13:23:18;7.03;85.51
69335;SHT31;56477;52.742;15.242;2023-04-07T13:25:44;7.06;85.91
69335;SHT31;56477;52.742;15.242;2023-04-07T13:28:10;7.12;85.85
69335;SHT31;56477;52.742;15.242;2023-04-07T13:30:36;7.17;85.65
69335;SHT31;56477;52.742;15.242;2023-04-07T13:33:02;7.14;85.67
69335;SHT31;56477;52.742;15.242;2023-04-07T13:35:28;7.03;85.62
69335;SHT31;56477;52.742;15.242;2023-04-07T13:38:01;7.13;85.70
69335;SHT31;56477;52.742;15.242;2023-04-07T13:40:27;7.24;85.29
69335;SHT31;56477;52.742;15.242;2023-04-07T13:42:53;7.20;85.45
69335;SHT31;56477;52.742;15.242;2023-04-07T13:45:19;7.13;85.74
69335;SHT31;56477;52.742;15.242;2023-04-07T13:47:45;7.07;86.76
69335;SHT31;56477;52.742;15.242;2023-04-07T13:50:11;7.09;86.94
69335;SHT31;56477;52.742;15.242;2023-04-07T13:52:37;7.06;86.76
69335;SHT31;56477;52.742;15.242;2023-04-07T13:55:04;7.12;86.99
69335;SHT31;56477;52.742;15.242;2023-04-07T13:57:30;7.07;86.70
69335;SHT31;56477;52.742;15.242;2023-04-07T13:59:57;6.93;86.64
69335;SHT31;56477;52.742;15.242;2023-04-07T14:02:22;6.96;88.16
69335;SHT31;56477;52.742;15.242;2023-04-07T14:04:49;6.91;88.23
69335;SHT31;56477;52.742;15.242;2023-04-07T14:07:16;6.84;89.31
69335;SHT31;56477;52.742;15.242;2023-04-07T14:09:42;6.81;89.21
69335;SHT31;56477;52.742;15.242;2023-04-07T14:12:08;6.82;89.40
69335;SHT31;56477;52.742;15.242;2023-04-07T14:14:34;6.81;89.68
69335;SHT31;56477;52.742;15.242;2023-04-07T14:17:02;6.72;90.25
69335;SHT31;56477;52.742;15.242;2023-04-07T14:19:28;6.59;91.06
69335;SHT31;56477;52.742;15.242;2023-04-07T14:21:54;6.54;91.69
69335;SHT31;56477;52.742;15.242;2023-04-07T14:24:20;6.57;91.51
69335;SHT31;56477;52.742;15.242;2023-04-07T14:26:46;6.44;91.39
69335;SHT31;56477;52.742;15.242;2023-04-07T14:29:13;6.45;91.38
69335;SHT31;56477;52.742;15.242;2023-04-07T14:31:39;6.38;91.59
69335;SHT31;56477;52.742;15.242;2023-04-07T14:34:05;6.34;91.96
69335;SHT31;56477;52.742;15.242;2023-04-07T14:36:34;6.40;92.45
69335;SHT31;56477;52.742;15.242;2023-04-07T14:39:00;6.38;92.06
69335;SHT31;56477;52.742;15.242;2023-04-07T14:41:26;6.48;92.63
69335;SHT31;56477;52.742;15.242;2023-04-07T14:43:53;6.51;92.66
69335;SHT31;56477;52.742;15.242;2023-04-07T14:46:22;6.58;92.28
69335;SHT31;56477;52.742;15.242;2023-04-07T14:48:49;6.63;92.32
69335;SHT31;56477;52.742;15.242;2023-04-07T14:51:18;6.67;92.16
69335;SHT31;56477;52.742;15.242;2023-04-07T14:53:44;6.68;91.73
69335;SHT31;56477;52.742;15.242;2023-04-07T14:56:11;6.63;91.81
69335;SHT31;56477;52.742;15.242;2023-04-07T14:58:38;6.64;91.70
69335;SHT31;56477;52.742;15.242;2023-04-07T15:01:05;6.64;92.08
69335;SHT31;56477;52.742;15.242;2023-04-07T15:03:32;6.58;92.25
69335;SHT31;56477;52.742;15.242;2023-04-07T15:05:59;6.57;92.34
69335;SHT31;56477;52.742;15.242;2023-04-07T15:08:25;6.47;92.21
69335;SHT31;56477;52.742;15.242;2023-04-07T15:10:51;6.41;91.63
69335;SHT31;56477;52.742;15.242;2023-04-07T15:13:17;6.41;92.00
69335;SHT31;56477;52.742;15.242;2023-04-07T15:15:43;6.47;92.49
69335;SHT31;56477;52.742;15.242;2023-04-07T15:18:09;6.37;92.48
69335;SHT31;56477;52.742;15.242;2023-04-07T15:20:35;6.40;92.12
69335;SHT31;56477;52.742;15.242;2023-04-07T15:23:01;6.47;92.37
69335;SHT31;56477;52.742;15.242;2023-04-07T15:25:27;6.57;92.47
69335;SHT31;56477;52.742;15.242;2023-04-07T15:27:54;6.58;92.33
69335;SHT31;56477;52.742;15.242;2023-04-07T15:30:19;6.59;92.47
69335;SHT31;56477;52.742;15.242;2023-04-07T15:32:59;6.54;92.62
69335;SHT31;56477;52.742;15.242;2023-04-07T15:35:26;6.57;92.50
69335;SHT31;56477;52.742;15.242;2023-04-07T15:37:52;6.59;92.72
69335;SHT31;56477;52.742;15.242;2023-04-07T15:40:18;6.61;91.98
69335;SHT31;56477;52.742;15.242;2023-04-07T15:42:45;6.64;92.45
69335;SHT31;56477;52.742;15.242;2023-04-07T15:45:10;6.65;92.35
69335;SHT31;56477;52.742;15.242;2023-04-07T15:47:37;6.61;92.34
69335;SHT31;56477;52.742;15.242;2023-04-07T15:50:02;6.65;92.55
69335;SHT31;56477;52.742;15.242;2023-04-07T15:52:29;6.65;92.33